Time;durP1;ratioP1;P1;durP2;ratioP2;P2;SDS_P1;SDS_P2;PMS_P1;PMS_P2;Temp;Humidity;BMP_temperature;BMP_pressure;BME280_temperature;BME280_humidity;BME280_pressure;Samples;Min_cycle;Max_cycle;Signal;HPM_P1;HPM_P2
2023/04/19 00:00:30;;;;;;;3.30;3.10;;;19.20;45.10;;;;;;5013949;28;20229;-65
2023/04/19 00:02:56;;;;;;;2.60;2.50;;;19.20;45.10;;;;;;5012939;28;20219;-63
2023/04/19 00:05:23;;;;;;;2.77;2.67;;;19.20;45.10;;;;;;5009464;28;20479;-65
2023/04/19 00:07:49;;;;;;;2.87;2.77;;;19.20;45.10;;;;;;5009270;28;20285;-63
2023/04/19 00:10:15;;;;;;;3.27;3.07;;;19.20;45.00;;;;;;5015116;28;20442;-64
2023/04/19 00:12:40;;;;;;;2.77;2.63;;;19.20;45.00;;;;;;5013676;28;20430;-66
2023/04/19 00:15:07;;;;;;;3.43;3.23;;;19.20;45.00;;;;;;5017101;28;20814;-65
2023/04/19 00:17:33;;;;;;;3.53;3.23;;;19.20;45.00;;;;;;5017090;28;20222;-67
2023/04/19 00:19:59;;;;;;;3.70;3.50;;;19.20;45.00;;;;;;5014598;28;20418;-64
2023/04/19 00:22:25;;;;;;;2.87;2.77;;;19.20;45.00;;;;;;5016803;28;20422;-64
2023/04/19 00:24:51;;;;;;;3.00;2.80;;;19.20;45.00;;;;;;5012801;28;20223;-69
2023/04/19 00:27:17;;;;;;;3.30;3.10;;;19.20;45.00;;;;;;5015145;28;20436;-66
2023/04/19 00:29:42;;;;;;;2.80;2.70;;;19.20;45.00;;;;;;5016117;28;20442;-67
2023/04/19 00:32:08;;;;;;;3.10;2.87;;;19.20;45.00;;;;;;5014254;28;20211;-66
2023/04/19 00:34:33;;;;;;;3.10;2.90;;;19.20;45.00;;;;;;5017765;28;20233;-64
2023/04/19 00:36:59;;;;;;;2.93;2.73;;;19.20;45.00;;;;;;5014134;28;20234;-65
2023/04/19 00:39:25;;;;;;;3.40;3.20;;;19.20;45.00;;;;;;5013684;28;20301;-64
2023/04/19 00:41:51;;;;;;;2.80;2.70;;;19.20;45.00;;;;;;5016935;28;20605;-64
2023/04/19 00:44:17;;;;;;;2.93;2.83;;;19.20;45.00;;;;;;5013366;28;20238;-66
2023/04/19 00:46:43;;;;;;;3.20;3.00;;;19.20;45.00;;;;;;5015295;28;20459;-65
2023/04/19 00:49:08;;;;;;;2.87;2.67;;;19.20;45.00;;;;;;5012740;28;20215;-66
2023/04/19 00:51:34;;;;;;;3.60;3.40;;;19.20;45.10;;;;;;5015268;28;20219;-64
2023/04/19 00:54:01;;;;;;;3.23;3.03;;;19.20;45.10;;;;;;5012565;28;20238;-65
2023/04/19 00:56:28;;;;;;;3.23;3.03;;;19.20;45.00;;;;;;5014649;28;20505;-64
2023/04/19 00:58:55;;;;;;;2.60;2.50;;;19.20;45.00;;;;;;5011884;28;20464;-64
2023/04/19 01:01:21;;;;;;;2.80;2.70;;;19.20;45.00;;;;;;5010469;28;21029;-64
2023/04/19 01:03:47;;;;;;;3.07;2.87;;;19.20;45.10;;;;;;5015134;28;20454;-67
2023/04/19 01:06:13;;;;;;;2.70;2.60;;;19.20;45.10;;;;;;5013755;28;20663;-70
2023/04/19 01:08:39;;;;;;;2.90;2.80;;;19.20;45.10;;;;;;5013561;28;20233;-66
2023/04/19 01:11:04;;;;;;;2.83;2.73;;;19.20;45.10;;;;;;5016019;28;20414;-65
2023/04/19 01:13:30;;;;;;;2.73;2.63;;;19.20;45.10;;;;;;5012098;28;20222;-66
2023/04/19 01:15:56;;;;;;;3.00;2.80;;;19.20;45.10;;;;;;5012515;28;20692;-64
2023/04/19 01:18:28;;;;;;;2.60;2.50;;;19.20;45.10;;;;;;5011345;28;20222;-66
2023/04/19 01:20:53;;;;;;;2.83;2.73;;;19.20;45.10;;;;;;5013024;28;20994;-67
2023/04/19 01:23:19;;;;;;;3.57;3.37;;;19.20;45.10;;;;;;5011368;28;20443;-64
2023/04/19 01:25:45;;;;;;;2.77;2.57;;;19.20;45.20;;;;;;5013533;28;20230;-66
2023/04/19 01:28:10;;;;;;;3.23;3.03;;;19.20;45.90;;;;;;5014713;28;20259;-64
2023/04/19 01:30:36;;;;;;;2.87;2.77;;;19.20;45.20;;;;;;5011322;28;20214;-65
2023/04/19 01:33:02;;;;;;;2.73;2.63;;;19.10;45.10;;;;;;5011398;28;20245;-70
2023/04/19 01:35:27;;;;;;;2.77;2.67;;;19.20;45.30;;;;;;5014799;28;20585;-70
2023/04/19 01:37:55;;;;;;;2.90;2.80;;;19.10;45.10;;;;;;5008857;28;20219;-64
2023/04/19 01:40:23;;;;;;;3.13;3.00;;;19.10;45.10;;;;;;5011306;28;20265;-64
2023/04/19 01:42:48;;;;;;;2.90;2.77;;;19.20;45.20;;;;;;5010893;28;20467;-65
2023/04/19 01:45:14;;;;;;;2.80;2.70;;;19.10;45.20;;;;;;5008971;28;20456;-66
2023/04/19 01:47:39;;;;;;;3.00;2.83;;;19.20;46.10;;;;;;5008540;28;20276;-66
2023/04/19 01:50:05;;;;;;;3.07;2.87;;;19.20;45.20;;;;;;5014247;28;20283;-65
2023/04/19 01:52:31;;;;;;;3.00;2.80;;;19.20;45.30;;;;;;5007116;28;20219;-65
2023/04/19 01:54:57;;;;;;;3.27;3.07;;;19.20;45.30;;;;;;5010846;28;20568;-65
2023/04/19 01:57:22;;;;;;;2.73;2.53;;;19.20;45.30;;;;;;5009072;28;20222;-67
2023/04/19 01:59:48;;;;;;;2.83;2.73;;;19.10;45.20;;;;;;5010627;28;20219;-69
2023/04/19 02:02:13;;;;;;;3.40;3.20;;;19.20;45.30;;;;;;5012377;28;22179;-67
2023/04/19 02:04:39;;;;;;;2.80;2.70;;;19.20;45.30;;;;;;5011039;28;20479;-68
2023/04/19 02:07:04;;;;;;;3.20;3.00;;;19.10;45.20;;;;;;5014096;28;20302;-65
2023/04/19 02:09:30;;;;;;;2.73;2.63;;;19.10;45.30;;;;;;5003074;28;20221;-66
2023/04/19 02:11:55;;;;;;;3.73;3.53;;;19.10;45.20;;;;;;5007519;28;20223;-64
2023/04/19 02:14:21;;;;;;;2.97;2.87;;;19.10;45.20;;;;;;5009791;28;20597;-65
2023/04/19 02:16:47;;;;;;;2.87;2.73;;;19.10;45.30;;;;;;5013928;28;20230;-68
2023/04/19 02:19:12;;;;;;;3.17;3.00;;;19.10;45.20;;;;;;5011143;28;20581;-67
2023/04/19 02:21:38;;;;;;;2.90;2.77;;;19.10;45.20;;;;;;5013557;28;20457;-67
2023/04/19 02:24:04;;;;;;;2.70;2.60;;;19.10;45.30;;;;;;5009291;28;20317;-65
2023/04/19 02:26:29;;;;;;;2.80;2.70;;;19.10;45.30;;;;;;5014251;28;20237;-65
2023/04/19 02:28:55;;;;;;;2.63;2.53;;;19.10;45.20;;;;;;5011380;28;20305;-66
2023/04/19 02:31:20;;;;;;;2.93;2.73;;;19.10;45.30;;;;;;5015461;28;20218;-67
2023/04/19 02:33:46;;;;;;;2.83;2.50;;;19.10;45.20;;;;;;5015793;28;20269;-65
2023/04/19 02:36:11;;;;;;;2.60;2.50;;;19.10;45.30;;;;;;5011681;28;20835;-66
2023/04/19 02:38:37;;;;;;;3.00;2.90;;;19.10;45.20;;;;;;5007206;28;20219;-64
2023/04/19 02:41:04;;;;;;;2.70;2.60;;;19.10;45.30;;;;;;5010599;28;20237;-67
2023/04/19 02:43:30;;;;;;;2.57;2.47;;;19.10;45.30;;;;;;5009647;28;20280;-65
2023/04/19 02:45:56;;;;;;;3.20;3.00;;;19.10;45.30;;;;;;5008892;28;20461;-70
2023/04/19 02:48:21;;;;;;;2.53;2.43;;;19.10;45.30;;;;;;5010914;28;20227;-66
2023/04/19 02:50:47;;;;;;;2.80;2.70;;;19.10;45.30;;;;;;5012957;28;20272;-68
2023/04/19 02:53:12;;;;;;;2.57;2.43;;;19.10;45.30;;;;;;5008168;28;20222;-65
2023/04/19 02:55:38;;;;;;;2.63;2.50;;;19.10;45.30;;;;;;5012770;28;24586;-64
2023/04/19 02:58:03;;;;;;;2.80;2.70;;;19.10;45.30;;;;;;5013283;28;20234;-67
2023/04/19 03:00:29;;;;;;;3.00;2.80;;;19.10;45.30;;;;;;5015092;28;20242;-67
2023/04/19 03:02:55;;;;;;;3.10;2.90;;;19.10;45.30;;;;;;5013656;28;20318;-64
2023/04/19 03:05:22;;;;;;;2.80;2.60;;;19.10;45.30;;;;;;5017052;28;20241;-67
2023/04/19 03:07:48;;;;;;;2.90;2.77;;;19.10;45.30;;;;;;5015980;28;20496;-65
2023/04/19 03:10:13;;;;;;;2.80;2.70;;;19.10;45.30;;;;;;5015295;28;21023;-65
2023/04/19 03:12:39;;;;;;;2.97;2.87;;;19.10;45.30;;;;;;5014273;28;20222;-68
2023/04/19 03:15:05;;;;;;;3.20;3.00;;;19.10;45.30;;;;;;5014770;28;21074;-65
2023/04/19 03:17:31;;;;;;;2.87;2.77;;;19.10;45.30;;;;;;5013463;28;20229;-68
2023/04/19 03:19:56;;;;;;;2.50;2.40;;;19.10;45.30;;;;;;5016610;28;20787;-64
2023/04/19 03:22:22;;;;;;;3.30;3.10;;;19.10;45.40;;;;;;5013204;28;20219;-69
2023/04/19 03:24:47;;;;;;;2.40;2.30;;;19.10;45.30;;;;;;5013986;28;20227;-67
2023/04/19 03:27:13;;;;;;;2.90;2.80;;;19.10;45.30;;;;;;5015210;28;20318;-67
2023/04/19 03:29:38;;;;;;;2.70;2.60;;;19.10;45.40;;;;;;5014878;28;20230;-65
2023/04/19 03:32:04;;;;;;;3.07;2.97;;;19.10;45.30;;;;;;5015491;28;20214;-66
2023/04/19 03:34:29;;;;;;;3.20;3.00;;;19.10;45.40;;;;;;5016564;28;21181;-65
2023/04/19 03:36:55;;;;;;;3.40;3.20;;;19.10;45.40;;;;;;5012634;28;20237;-66
2023/04/19 03:39:20;;;;;;;2.60;2.50;;;19.10;45.30;;;;;;5011639;28;20592;-67
2023/04/19 03:41:46;;;;;;;2.30;2.20;;;19.10;45.40;;;;;;5015428;28;20974;-67
2023/04/19 03:44:11;;;;;;;2.87;2.77;;;19.10;45.30;;;;;;5015368;28;20298;-65
2023/04/19 03:46:37;;;;;;;2.93;2.73;;;19.10;45.40;;;;;;5015298;28;20230;-64
2023/04/19 03:49:02;;;;;;;2.83;2.67;;;19.10;45.40;;;;;;5011393;28;20231;-67
2023/04/19 03:51:28;;;;;;;2.60;2.50;;;19.10;45.40;;;;;;5013779;28;20241;-64
2023/04/19 03:53:53;;;;;;;2.60;2.50;;;19.10;45.40;;;;;;5016667;28;20766;-66
2023/04/19 03:56:19;;;;;;;2.90;2.70;;;19.10;45.40;;;;;;5019294;28;20211;-68
2023/04/19 03:58:45;;;;;;;3.07;2.87;;;19.10;45.40;;;;;;5015946;28;20325;-67
2023/04/19 04:01:18;;;;;;;2.67;2.47;;;19.10;45.30;;;;;;5012411;28;20234;-67
2023/04/19 04:03:44;;;;;;;2.57;2.47;;;19.10;45.30;;;;;;5014840;28;20431;-68
2023/04/19 04:06:09;;;;;;;3.20;3.00;;;19.10;45.30;;;;;;5011524;28;20925;-65
2023/04/19 04:08:35;;;;;;;3.10;2.90;;;19.10;45.40;;;;;;5010331;28;20260;-65
2023/04/19 04:11:00;;;;;;;2.50;2.40;;;19.10;45.40;;;;;;5013634;28;20211;-63
2023/04/19 04:13:26;;;;;;;2.80;2.70;;;19.10;45.40;;;;;;5014965;28;20300;-67
2023/04/19 04:15:51;;;;;;;2.37;2.27;;;19.10;45.40;;;;;;5011114;28;20242;-66
2023/04/19 04:18:17;;;;;;;3.20;3.00;;;19.10;45.40;;;;;;5016717;28;20219;-64
2023/04/19 04:20:43;;;;;;;2.20;2.10;;;19.10;45.40;;;;;;5018436;28;20547;-65
2023/04/19 04:23:09;;;;;;;2.50;2.40;;;19.10;45.40;;;;;;5012641;28;20222;-68
2023/04/19 04:25:36;;;;;;;2.40;2.30;;;19.10;45.30;;;;;;5014781;28;20461;-66
2023/04/19 04:28:03;;;;;;;3.00;2.80;;;19.10;45.30;;;;;;5007674;28;20598;-64
2023/04/19 04:30:29;;;;;;;2.93;2.73;;;19.10;45.30;;;;;;5012114;28;20586;-62
2023/04/19 04:32:56;;;;;;;2.90;2.70;;;19.10;45.30;;;;;;5012978;28;20785;-67
2023/04/19 04:35:22;;;;;;;3.73;2.77;;;19.10;45.30;;;;;;5011788;28;20234;-69
2023/04/19 04:37:48;;;;;;;2.70;2.60;;;19.10;45.20;;;;;;5007969;28;20501;-62
2023/04/19 04:40:14;;;;;;;2.60;2.50;;;19.10;45.20;;;;;;5009964;28;20738;-68
2023/04/19 04:42:40;;;;;;;2.63;2.53;;;19.20;45.30;;;;;;5009003;28;20230;-61
2023/04/19 04:45:06;;;;;;;2.63;2.53;;;19.20;45.20;;;;;;5011822;28;21649;-63
2023/04/19 04:47:33;;;;;;;3.13;2.93;;;19.20;45.30;;;;;;5012862;28;20219;-71
2023/04/19 04:49:59;;;;;;;2.70;2.60;;;19.20;45.30;;;;;;5011510;28;20951;-69
2023/04/19 04:52:25;;;;;;;3.00;2.80;;;19.10;45.20;;;;;;5015334;28;20485;-63
2023/04/19 04:54:50;;;;;;;2.97;2.77;;;19.20;45.20;;;;;;5013910;28;21459;-62
2023/04/19 04:57:16;;;;;;;2.53;2.43;;;19.20;45.20;;;;;;5012733;28;20273;-63
2023/04/19 04:59:41;;;;;;;3.00;2.90;;;19.10;45.20;;;;;;5022389;28;20257;-63
2023/04/19 05:02:07;;;;;;;2.90;2.80;;;19.10;45.20;;;;;;5009416;28;20777;-65
2023/04/19 05:04:32;;;;;;;2.60;2.50;;;19.20;45.20;;;;;;5015501;28;20223;-69
2023/04/19 05:06:58;;;;;;;2.73;2.53;;;19.20;45.20;;;;;;5011564;28;20238;-61
2023/04/19 05:09:23;;;;;;;2.77;2.67;;;19.10;45.20;;;;;;5005789;28;20258;-63
2023/04/19 05:11:49;;;;;;;2.93;2.73;;;19.20;45.20;;;;;;5013726;28;20727;-63
2023/04/19 05:14:15;;;;;;;2.93;2.83;;;19.20;45.20;;;;;;5000352;28;20625;-63
2023/04/19 05:16:40;;;;;;;2.53;2.43;;;19.20;45.20;;;;;;4997749;28;20222;-63
2023/04/19 05:19:05;;;;;;;2.80;2.60;;;19.20;45.20;;;;;;5003441;28;20313;-68
2023/04/19 05:21:33;;;;;;;2.63;2.53;;;19.20;45.20;;;;;;5004672;28;20234;-66
2023/04/19 05:23:58;;;;;;;2.80;2.70;;;19.20;45.20;;;;;;5003500;28;20338;-65
2023/04/19 05:26:24;;;;;;;2.50;2.40;;;19.20;45.20;;;;;;5006256;28;20446;-64
2023/04/19 05:28:49;;;;;;;2.80;2.60;;;19.20;45.10;;;;;;5012870;28;20227;-68
2023/04/19 05:31:15;;;;;;;3.10;2.60;;;19.20;44.90;;;;;;5006532;28;21077;-68
2023/04/19 05:33:41;;;;;;;2.73;2.63;;;19.20;44.90;;;;;;5010117;28;20231;-63
2023/04/19 05:36:06;;;;;;;2.47;2.37;;;19.20;44.80;;;;;;5009808;28;20269;-62
2023/04/19 05:38:32;;;;;;;2.57;2.47;;;19.20;44.90;;;;;;5007486;28;20247;-63
2023/04/19 05:40:58;;;;;;;3.30;3.10;;;19.20;44.90;;;;;;5012119;28;20437;-62
2023/04/19 05:43:24;;;;;;;2.50;2.40;;;19.20;44.90;;;;;;5009458;28;20222;-63
2023/04/19 05:45:49;;;;;;;2.60;2.40;;;19.20;44.90;;;;;;5013252;28;20229;-62
2023/04/19 05:48:15;;;;;;;2.20;2.10;;;19.20;45.00;;;;;;5010972;28;20223;-63
2023/04/19 05:50:41;;;;;;;7.60;3.40;;;19.20;45.00;;;;;;5016313;28;20723;-64
2023/04/19 05:53:06;;;;;;;2.53;2.30;;;19.20;45.00;;;;;;5010539;28;20223;-61
2023/04/19 05:55:32;;;;;;;2.33;2.23;;;19.20;45.00;;;;;;5009333;28;20494;-67
2023/04/19 05:57:58;;;;;;;2.33;2.23;;;19.20;45.00;;;;;;5008389;28;20217;-64
2023/04/19 06:00:23;;;;;;;4.17;2.17;;;19.20;45.00;;;;;;5012378;28;20227;-63
2023/04/19 06:02:49;;;;;;;2.33;2.23;;;19.20;45.00;;;;;;5007175;28;20272;-63
2023/04/19 06:05:15;;;;;;;2.53;2.43;;;19.10;45.00;;;;;;5008728;28;20218;-61
2023/04/19 06:07:40;;;;;;;2.53;2.43;;;19.20;45.00;;;;;;5007020;28;20226;-61
2023/04/19 06:10:06;;;;;;;2.90;2.80;;;19.20;45.10;;;;;;5008218;28;20306;-66
2023/04/19 06:12:32;;;;;;;2.30;2.20;;;19.20;45.10;;;;;;5004166;28;20229;-66
2023/04/19 06:14:58;;;;;;;2.50;2.40;;;19.20;45.20;;;;;;5010645;28;20462;-63
2023/04/19 06:17:24;;;;;;;2.30;2.20;;;19.10;45.20;;;;;;5003941;28;20223;-62
2023/04/19 06:19:55;;;;;;;2.30;2.20;;;19.10;45.10;;;;;;5010435;28;20851;-63
2023/04/19 06:22:21;;;;;;;2.40;2.30;;;19.10;45.20;;;;;;5008567;28;20431;-64
2023/04/19 06:24:47;;;;;;;2.50;2.30;;;19.10;45.20;;;;;;5004695;28;20442;-63
2023/04/19 06:27:15;;;;;;;2.20;2.10;;;19.10;45.20;;;;;;5002950;28;22306;-62
2023/04/19 06:29:41;;;;;;;2.23;2.13;;;19.10;45.20;;;;;;5008952;28;20258;-62
2023/04/19 06:32:06;;;;;;;2.30;2.20;;;19.10;45.20;;;;;;5010695;28;20521;-64
2023/04/19 06:34:32;;;;;;;2.30;2.20;;;19.10;45.20;;;;;;5005985;28;20329;-65
2023/04/19 06:36:57;;;;;;;2.40;2.30;;;19.20;45.30;;;;;;5010683;28;20218;-66
2023/04/19 06:39:23;;;;;;;2.37;2.27;;;19.10;45.20;;;;;;5009868;28;20229;-66
2023/04/19 06:41:48;;;;;;;2.20;2.10;;;19.10;45.30;;;;;;5011222;28;20211;-63
2023/04/19 06:44:14;;;;;;;2.37;2.27;;;19.10;45.30;;;;;;5011044;28;20868;-62
2023/04/19 06:46:40;;;;;;;2.03;1.93;;;19.10;45.30;;;;;;5006985;28;20728;-68
2023/04/19 06:49:06;;;;;;;2.00;1.90;;;19.10;45.20;;;;;;5008388;28;20538;-68
2023/04/19 06:51:32;;;;;;;2.50;2.40;;;19.10;45.30;;;;;;5010649;28;20218;-64
2023/04/19 06:53:58;;;;;;;2.60;2.37;;;19.10;45.30;;;;;;5007928;28;20328;-65
2023/04/19 06:56:46;;;;;;;2.10;2.00;;;19.10;45.30;;;;;;5011378;28;21237;-64
2023/04/19 06:59:17;;;;;;;2.10;2.00;;;19.10;45.30;;;;;;5010942;28;20227;-66
2023/04/19 07:01:44;;;;;;;2.20;2.10;;;19.10;45.30;;;;;;5008418;28;20434;-65
2023/04/19 07:04:10;;;;;;;2.47;2.37;;;19.10;45.30;;;;;;5010591;28;20491;-64
2023/04/19 07:06:37;;;;;;;2.40;2.30;;;19.10;45.30;;;;;;5005778;28;20467;-64
2023/04/19 07:09:03;;;;;;;2.47;2.27;;;19.10;45.30;;;;;;5006064;28;20982;-61
2023/04/19 07:11:29;;;;;;;2.27;2.07;;;19.10;45.30;;;;;;5010086;28;20470;-62
2023/04/19 07:13:55;;;;;;;2.33;2.23;;;19.10;45.30;;;;;;5011985;28;20865;-65
2023/04/19 07:16:21;;;;;;;1.97;1.87;;;19.10;45.30;;;;;;5013043;28;20231;-68
2023/04/19 07:18:46;;;;;;;2.10;2.00;;;19.10;45.30;;;;;;5009587;28;21109;-63
2023/04/19 07:21:12;;;;;;;2.20;2.10;;;19.10;45.30;;;;;;5009075;28;20317;-65
2023/04/19 07:23:37;;;;;;;2.30;2.10;;;19.10;45.30;;;;;;5006993;28;20686;-61
2023/04/19 07:26:03;;;;;;;2.70;2.60;;;19.10;45.40;;;;;;5008542;28;20661;-64
2023/04/19 07:28:29;;;;;;;2.40;2.30;;;19.10;45.40;;;;;;5011610;28;20470;-62
2023/04/19 07:30:55;;;;;;;2.53;2.30;;;19.10;45.30;;;;;;5007841;28;20214;-64
2023/04/19 07:33:22;;;;;;;2.03;1.93;;;19.10;45.30;;;;;;5006956;28;20811;-63
2023/04/19 07:35:48;;;;;;;2.13;2.03;;;19.10;45.30;;;;;;5011831;28;20671;-65
2023/04/19 07:38:13;;;;;;;2.07;1.97;;;19.20;45.40;;;;;;5009137;28;20424;-62
2023/04/19 07:40:39;;;;;;;2.43;2.23;;;19.20;45.50;;;;;;5008210;28;20238;-64
2023/04/19 07:43:05;;;;;;;2.27;2.17;;;19.10;45.40;;;;;;5004538;28;20234;-62
2023/04/19 07:45:31;;;;;;;2.30;2.20;;;19.10;45.30;;;;;;5004302;28;20222;-65
2023/04/19 07:47:56;;;;;;;2.60;2.43;;;19.20;45.30;;;;;;5001137;28;20501;-67
2023/04/19 07:50:25;;;;;;;2.50;2.30;;;19.10;45.30;;;;;;5005579;28;20238;-61
2023/04/19 07:52:50;;;;;;;2.10;2.00;;;19.20;45.40;;;;;;5008116;28;20280;-63
2023/04/19 07:55:16;;;;;;;2.10;2.00;;;19.20;45.40;;;;;;5009595;28;20451;-61
2023/04/19 07:57:45;;;;;;;2.17;2.07;;;19.10;45.30;;;;;;5002513;28;20226;-64
2023/04/19 08:00:11;;;;;;;2.27;2.17;;;19.20;45.30;;;;;;5000039;28;20979;-63
2023/04/19 08:02:37;;;;;;;2.20;2.00;;;19.20;45.40;;;;;;5004143;28;20984;-63
2023/04/19 08:05:03;;;;;;;2.33;2.23;;;19.20;45.40;;;;;;5006253;28;20431;-62
2023/04/19 08:07:29;;;;;;;2.00;1.90;;;19.20;45.40;;;;;;5007136;28;20234;-66
2023/04/19 08:09:55;;;;;;;2.10;2.00;;;19.10;45.30;;;;;;5013438;28;20427;-62
2023/04/19 08:12:20;;;;;;;2.30;2.10;;;19.20;45.50;;;;;;5005858;28;20446;-65
2023/04/19 08:14:47;;;;;;;2.13;2.03;;;19.20;45.50;;;;;;5009682;28;20235;-62
2023/04/19 08:17:15;;;;;;;2.00;1.90;;;19.20;45.30;;;;;;5005696;28;20226;-66
2023/04/19 08:19:40;;;;;;;2.63;2.53;;;19.20;45.40;;;;;;5007517;28;20804;-65
2023/04/19 08:22:06;;;;;;;2.20;2.00;;;19.20;45.30;;;;;;5008068;28;20446;-64
2023/04/19 08:24:31;;;;;;;2.20;2.10;;;19.20;45.40;;;;;;5009262;28;20255;-61
2023/04/19 08:26:57;;;;;;;2.10;2.00;;;19.20;45.40;;;;;;5009312;28;20250;-67
2023/04/19 08:29:22;;;;;;;2.30;2.20;;;19.20;45.30;;;;;;5007962;28;20237;-63
2023/04/19 08:31:48;;;;;;;2.23;2.10;;;19.20;45.30;;;;;;5009951;28;21002;-64
2023/04/19 08:34:14;;;;;;;2.13;2.03;;;19.20;45.30;;;;;;5008637;28;20373;-62
2023/04/19 08:36:39;;;;;;;2.10;2.00;;;19.20;45.30;;;;;;5005217;28;20960;-62
2023/04/19 08:39:05;;;;;;;2.13;2.03;;;19.20;45.30;;;;;;5004876;28;20226;-65
2023/04/19 08:41:31;;;;;;;2.20;2.10;;;19.20;45.30;;;;;;5005318;28;21701;-68
2023/04/19 08:43:58;;;;;;;2.20;2.10;;;19.20;45.30;;;;;;5003355;28;20461;-67
2023/04/19 08:46:25;;;;;;;2.80;2.60;;;19.20;45.20;;;;;;5004343;28;20677;-66
2023/04/19 08:48:51;;;;;;;4.80;2.63;;;19.20;45.30;;;;;;5006043;28;20475;-65
2023/04/19 08:51:18;;;;;;;1.80;1.70;;;19.20;45.20;;;;;;5007033;28;20419;-61
2023/04/19 08:53:44;;;;;;;1.90;1.80;;;19.20;45.30;;;;;;5003899;28;20866;-63
2023/04/19 08:56:14;;;;;;;2.10;2.00;;;19.20;45.30;;;;;;5005889;28;20454;-66
2023/04/19 08:58:39;;;;;;;2.00;1.90;;;19.20;45.30;;;;;;5007067;28;21777;-68
2023/04/19 09:01:07;;;;;;;2.13;2.03;;;19.20;45.30;;;;;;5004512;28;20525;-64
2023/04/19 09:03:33;;;;;;;1.83;1.73;;;19.20;45.20;;;;;;5008134;28;20234;-62
2023/04/19 09:06:00;;;;;;;2.07;1.97;;;19.30;45.30;;;;;;5003695;28;20439;-67
2023/04/19 09:08:26;;;;;;;2.13;2.03;;;19.20;45.30;;;;;;5005622;28;20509;-62
2023/04/19 09:10:59;;;;;;;2.03;1.93;;;19.20;45.20;;;;;;5008417;28;20592;-63
2023/04/19 09:13:27;;;;;;;1.97;1.87;;;19.20;45.20;;;;;;5006512;28;20433;-64
2023/04/19 09:15:55;;;;;;;1.80;1.70;;;19.20;45.30;;;;;;5000719;28;20478;-67
2023/04/19 09:18:23;;;;;;;2.10;2.00;;;19.20;45.30;;;;;;5006483;28;20430;-62
2023/04/19 09:20:56;;;;;;;2.10;2.00;;;19.30;45.30;;;;;;5011464;28;20467;-64
2023/04/19 09:23:24;;;;;;;1.90;1.80;;;19.30;45.30;;;;;;5004289;28;20570;-65
2023/04/19 09:26:03;;;;;;;2.03;1.93;;;19.30;45.30;;;;;;5005346;28;20468;-67
2023/04/19 09:28:29;;;;;;;1.80;1.70;;;19.30;45.50;;;;;;5004645;28;20434;-68
2023/04/19 09:30:55;;;;;;;1.80;1.70;;;19.20;45.10;;;;;;5011838;28;20489;-63
2023/04/19 09:33:38;;;;;;;2.00;1.90;;;19.20;45.10;;;;;;5006016;28;20945;-61
2023/04/19 09:36:04;;;;;;;2.17;1.50;;;19.20;45.10;;;;;;5002992;28;20451;-68
2023/04/19 09:38:44;;;;;;;1.90;1.80;;;19.30;45.20;;;;;;5010527;28;20504;-62
2023/04/19 09:41:10;;;;;;;1.90;1.80;;;19.20;45.10;;;;;;5006304;28;20456;-63
2023/04/19 09:43:36;;;;;;;2.03;1.90;;;19.20;45.10;;;;;;5003431;28;20442;-66
2023/04/19 09:46:01;;;;;;;2.00;1.90;;;19.30;45.20;;;;;;5007494;28;20219;-61
2023/04/19 09:48:27;;;;;;;2.00;1.90;;;19.30;45.20;;;;;;5002849;28;20550;-68
2023/04/19 09:50:55;;;;;;;1.90;1.80;;;19.20;45.20;;;;;;5006716;28;20219;-65
2023/04/19 09:53:21;;;;;;;1.70;1.60;;;19.20;45.20;;;;;;5003328;28;20361;-66
2023/04/19 09:55:47;;;;;;;2.00;1.90;;;19.30;45.20;;;;;;5003459;28;20446;-68
2023/04/19 09:58:14;;;;;;;1.90;1.80;;;19.30;45.20;;;;;;5000131;28;20684;-63
2023/04/19 10:00:42;;;;;;;1.77;1.67;;;19.30;46.00;;;;;;5005735;28;20253;-63
2023/04/19 10:03:09;;;;;;;2.10;2.00;;;19.30;45.30;;;;;;5001387;28;20443;-66
2023/04/19 10:05:39;;;;;;;1.63;1.53;;;19.30;45.20;;;;;;5003672;28;21302;-64
2023/04/19 10:08:06;;;;;;;1.67;1.57;;;19.30;45.20;;;;;;4999647;28;20472;-66
2023/04/19 10:10:32;;;;;;;1.80;1.70;;;19.30;45.20;;;;;;5008587;28;20456;-64
2023/04/19 10:12:59;;;;;;;1.87;1.77;;;19.30;45.20;;;;;;5010548;28;20978;-64
2023/04/19 10:15:26;;;;;;;1.80;1.70;;;19.30;45.20;;;;;;5005999;28;20241;-64
2023/04/19 10:17:52;;;;;;;1.90;1.80;;;19.30;45.10;;;;;;5004782;28;20555;-66
2023/04/19 10:20:36;;;;;;;1.60;1.50;;;19.30;45.20;;;;;;5008720;28;20423;-65
2023/04/19 10:23:05;;;;;;;1.77;1.67;;;19.30;45.10;;;;;;5001528;28;20253;-67
2023/04/19 10:25:30;;;;;;;1.90;1.80;;;19.30;45.10;;;;;;5006636;28;20439;-65
2023/04/19 10:27:57;;;;;;;1.83;1.73;;;19.30;45.10;;;;;;5004228;28;20438;-64
2023/04/19 10:30:25;;;;;;;1.80;1.70;;;19.30;45.10;;;;;;5003774;28;20779;-64
2023/04/19 10:32:52;;;;;;;1.83;1.73;;;19.30;45.10;;;;;;5004754;28;21968;-66
2023/04/19 10:35:36;;;;;;;2.03;1.93;;;19.40;45.10;;;;;;5002911;28;20511;-64
2023/04/19 10:38:10;;;;;;;1.80;1.70;;;19.40;45.10;;;;;;5006002;28;20484;-61
2023/04/19 10:40:52;;;;;;;1.80;1.70;;;19.30;45.10;;;;;;5006894;28;20833;-63
2023/04/19 10:43:18;;;;;;;1.87;1.77;;;19.40;45.20;;;;;;5004711;28;20923;-64
2023/04/19 10:45:45;;;;;;;1.80;1.70;;;19.30;45.90;;;;;;5000618;28;20463;-68
2023/04/19 10:48:29;;;;;;;1.93;1.83;;;19.30;45.10;;;;;;5021777;28;22952;-62
2023/04/19 10:50:58;;;;;;;1.90;1.80;;;19.40;45.20;;;;;;5005087;28;20439;-67
2023/04/19 10:54:11;;;;;;;1.53;1.43;;;19.30;45.10;;;;;;5002080;28;20596;-65
2023/04/19 10:56:40;;;;;;;2.23;1.90;;;19.30;45.10;;;;;;4995706;28;20463;-63
2023/04/19 10:59:10;;;;;;;1.97;1.87;;;19.40;45.10;;;;;;5003431;28;20491;-62
2023/04/19 11:01:45;;;;;;;1.70;1.60;;;19.40;45.10;;;;;;5003051;28;20776;-67
2023/04/19 11:04:11;;;;;;;1.57;1.47;;;19.40;45.10;;;;;;5003079;28;20430;-62
2023/04/19 11:07:00;;;;;;;1.90;1.80;;;19.40;45.00;;;;;;5006596;28;20911;-68
2023/04/19 11:09:45;;;;;;;1.70;1.60;;;19.40;45.00;;;;;;5008624;28;20658;-68
2023/04/19 11:12:12;;;;;;;1.60;1.50;;;19.40;45.00;;;;;;5004641;28;20455;-62
2023/04/19 11:14:44;;;;;;;1.60;1.50;;;19.40;45.00;;;;;;5003448;28;21045;-62
2023/04/19 11:17:17;;;;;;;1.90;1.80;;;19.40;45.00;;;;;;5007405;28;20804;-68
2023/04/19 11:19:54;;;;;;;1.50;1.40;;;19.40;45.00;;;;;;5012672;28;20475;-63
2023/04/19 11:22:35;;;;;;;1.70;1.60;;;19.40;45.00;;;;;;5002060;28;20430;-67
2023/04/19 11:25:12;;;;;;;1.57;1.47;;;19.40;44.80;;;;;;5009099;28;20466;-67
2023/04/19 11:27:39;;;;;;;1.60;1.50;;;19.40;44.80;;;;;;5005685;28;20776;-62
2023/04/19 11:30:12;;;;;;;1.70;1.60;;;19.40;44.80;;;;;;5009519;28;22088;-65
2023/04/19 11:32:44;;;;;;;1.60;1.50;;;19.40;44.80;;;;;;5009902;28;20442;-61
2023/04/19 11:35:10;;;;;;;1.70;1.60;;;19.40;44.70;;;;;;5006362;28;20565;-66
2023/04/19 11:37:37;;;;;;;1.60;1.50;;;19.40;45.50;;;;;;5005399;28;20511;-66
2023/04/19 11:40:05;;;;;;;1.77;1.50;;;19.40;44.70;;;;;;5007673;28;20686;-65
2023/04/19 11:42:31;;;;;;;1.70;1.60;;;19.40;44.70;;;;;;4996308;28;20500;-67
2023/04/19 11:44:58;;;;;;;1.70;1.60;;;19.40;44.70;;;;;;5007728;28;20840;-64
2023/04/19 11:47:27;;;;;;;1.70;1.60;;;19.40;44.70;;;;;;5006739;28;21017;-65
2023/04/19 11:49:55;;;;;;;2.03;1.60;;;19.40;44.70;;;;;;5006749;28;20460;-63
2023/04/19 11:52:23;;;;;;;1.60;1.50;;;19.40;44.70;;;;;;5010031;28;21064;-67
2023/04/19 11:54:52;;;;;;;1.60;1.50;;;19.40;44.70;;;;;;5008432;28;20482;-64
2023/04/19 11:57:30;;;;;;;1.43;1.33;;;19.40;44.70;;;;;;5006586;28;20497;-66
2023/04/19 12:00:09;;;;;;;1.60;1.50;;;19.40;45.50;;;;;;5009637;28;20427;-65
2023/04/19 12:02:40;;;;;;;1.77;1.67;;;19.40;44.70;;;;;;5008432;28;20460;-64
2023/04/19 12:05:10;;;;;;;1.50;1.40;;;19.40;44.80;;;;;;5007820;28;20434;-62
2023/04/19 12:07:35;;;;;;;1.57;1.47;;;19.40;44.90;;;;;;5002299;28;20978;-62
2023/04/19 12:10:11;;;;;;;1.50;1.40;;;19.40;44.80;;;;;;5003633;28;20562;-68
2023/04/19 12:12:37;;;;;;;1.43;1.33;;;19.40;44.80;;;;;;5008720;28;20245;-65
2023/04/19 12:15:04;;;;;;;1.50;1.40;;;19.40;44.70;;;;;;5002702;28;20479;-69
2023/04/19 12:17:30;;;;;;;1.87;1.73;;;19.40;44.70;;;;;;4999817;28;21003;-66
2023/04/19 12:19:56;;;;;;;1.63;1.53;;;19.50;44.80;;;;;;5003982;28;21005;-67
2023/04/19 12:22:24;;;;;;;2.27;1.50;;;19.40;44.80;;;;;;5005170;28;20443;-66
2023/04/19 12:24:51;;;;;;;1.53;1.43;;;19.50;44.80;;;;;;5004283;28;20238;-68
2023/04/19 12:27:17;;;;;;;1.30;1.20;;;19.40;44.70;;;;;;5009452;28;20443;-67
2023/04/19 12:29:42;;;;;;;1.73;1.63;;;19.40;44.80;;;;;;5004144;28;21206;-61
2023/04/19 12:32:10;;;;;;;1.63;1.53;;;19.50;44.80;;;;;;5006251;28;20442;-65
2023/04/19 12:34:35;;;;;;;2.00;1.90;;;19.40;44.70;;;;;;5009551;28;20261;-67
2023/04/19 12:37:03;;;;;;;1.53;1.43;;;19.50;44.80;;;;;;5012674;28;20821;-62
2023/04/19 12:39:28;;;;;;;1.50;1.40;;;19.50;44.70;;;;;;5006222;28;20235;-64
2023/04/19 12:41:54;;;;;;;1.50;1.40;;;19.50;44.80;;;;;;5005364;28;20986;-67
2023/04/19 12:44:20;;;;;;;1.40;1.30;;;19.40;44.70;;;;;;5007259;28;20277;-63
2023/04/19 12:46:45;;;;;;;1.40;1.30;;;19.50;44.80;;;;;;5008781;28;20231;-62